Time;durP1;ratioP1;P1;durP2;ratioP2;P2;SDS_P1;SDS_P2;PMS_P1;PMS_P2;Temp;Humidity;BMP_temperature;BMP_pressure;BME280_temperature;BME280_humidity;BME280_pressure;Samples;Min_cycle;Max_cycle;Signal;HPM_P1;HPM_P2
2023/06/08 00:01:52;;;;;;;;;;;;;;;15.78;100.00;95480.47;10509122;28;2040;-72
2023/06/08 00:06:58;;;;;;;;;;;;;;;15.68;100.00;95473.41;10505927;28;1882;-72
2023/06/08 00:12:02;;;;;;;;;;;;;;;15.71;100.00;95480.09;10502003;28;2006;-72
2023/06/08 00:17:10;;;;;;;;;;;;;;;15.53;100.00;95471.88;10503581;28;2331;-73
2023/06/08 00:22:13;;;;;;;;;;;;;;;15.52;100.00;95472.97;10503637;28;2071;-72
2023/06/08 00:27:16;;;;;;;;;;;;;;;15.57;100.00;95478.25;10508703;28;2137;-72
2023/06/08 00:32:18;;;;;;;;;;;;;;;15.45;100.00;95474.53;10510494;28;2322;-71
2023/06/08 00:37:20;;;;;;;;;;;;;;;15.13;100.00;95461.00;10509280;28;1899;-71
2023/06/08 00:42:23;;;;;;;;;;;;;;;15.25;100.00;95465.03;10508627;28;2304;-72
2023/06/08 00:47:26;;;;;;;;;;;;;;;15.35;100.00;95472.91;10509468;28;4438;-72
2023/06/08 00:52:28;;;;;;;;;;;;;;;15.39;100.00;95465.75;10510269;28;1980;-72
2023/06/08 00:57:32;;;;;;;;;;;;;;;15.45;100.00;95469.13;10509388;28;2098;-73
2023/06/08 01:02:36;;;;;;;;;;;;;;;15.36;100.00;95463.69;10506496;28;2053;-73
2023/06/08 01:07:40;;;;;;;;;;;;;;;15.29;100.00;95466.03;10508687;28;1982;-72
2023/06/08 01:12:43;;;;;;;;;;;;;;;15.22;100.00;95457.56;10508407;28;2016;-73
2023/06/08 01:17:47;;;;;;;;;;;;;;;15.52;100.00;95458.63;10508235;28;2006;-72
2023/06/08 01:22:49;;;;;;;;;;;;;;;15.21;100.00;95451.34;10512138;28;2313;-71
2023/06/08 01:27:53;;;;;;;;;;;;;;;15.13;100.00;95452.88;10512210;28;2303;-71
2023/06/08 01:32:55;;;;;;;;;;;;;;;15.29;100.00;95449.78;10504299;28;1949;-72
2023/06/08 01:37:58;;;;;;;;;;;;;;;15.17;100.00;95449.56;10505765;28;2027;-71
2023/06/08 01:43:02;;;;;;;;;;;;;;;15.16;100.00;95450.66;10512905;28;4473;-70
2023/06/08 01:48:05;;;;;;;;;;;;;;;15.14;100.00;95440.97;10510210;28;1902;-73
2023/06/08 01:53:08;;;;;;;;;;;;;;;15.13;100.00;95450.16;10508064;28;1852;-71
2023/06/08 01:58:14;;;;;;;;;;;;;;;14.95;100.00;95440.38;10492101;28;2055;-73
2023/06/08 02:03:16;;;;;;;;;;;;;;;14.92;100.00;95432.84;10510358;28;1978;-73
2023/06/08 02:08:19;;;;;;;;;;;;;;;14.88;100.00;95434.56;10509450;28;1950;-69
2023/06/08 02:13:21;;;;;;;;;;;;;;;14.91;100.00;95436.66;10509869;28;1936;-71
2023/06/08 02:18:25;;;;;;;;;;;;;;;14.94;100.00;95443.34;10505493;28;2166;-71
2023/06/08 02:23:27;;;;;;;;;;;;;;;14.97;100.00;95432.72;10506296;28;2284;-72
2023/06/08 02:28:29;;;;;;;;;;;;;;;14.65;100.00;95436.50;10510708;28;2067;-72
2023/06/08 02:33:32;;;;;;;;;;;;;;;14.97;100.00;95440.84;10506464;28;1925;-72
2023/06/08 02:38:34;;;;;;;;;;;;;;;14.86;100.00;95437.59;10504619;28;2020;-71
2023/06/08 02:43:40;;;;;;;;;;;;;;;14.89;100.00;95430.78;10501665;28;4541;-72
2023/06/08 02:48:42;;;;;;;;;;;;;;;14.65;100.00;95430.28;10500216;28;2060;-71
2023/06/08 02:53:45;;;;;;;;;;;;;;;14.59;100.00;95432.31;10505972;28;1855;-71
2023/06/08 02:58:48;;;;;;;;;;;;;;;14.68;100.00;95435.06;10506729;28;1981;-72
2023/06/08 03:03:51;;;;;;;;;;;;;;;14.62;100.00;95433.59;10504899;28;1871;-71
2023/06/08 03:08:54;;;;;;;;;;;;;;;14.58;100.00;95436.94;10501264;28;1874;-71
2023/06/08 03:13:56;;;;;;;;;;;;;;;14.43;100.00;95439.13;10507639;28;2255;-73
2023/06/08 03:18:59;;;;;;;;;;;;;;;14.50;100.00;95448.47;10506099;28;2019;-73
2023/06/08 03:24:02;;;;;;;;;;;;;;;14.58;100.00;95452.34;10506270;28;1879;-73
2023/06/08 03:29:04;;;;;;;;;;;;;;;14.55;100.00;95448.34;10488746;28;1883;-73
2023/06/08 03:34:07;;;;;;;;;;;;;;;14.45;100.00;95464.00;10495693;28;8399;-72
2023/06/08 03:39:09;;;;;;;;;;;;;;;14.13;100.00;95463.06;10506573;28;5351;-72
2023/06/08 03:44:11;;;;;;;;;;;;;;;14.08;100.00;95473.97;10503339;28;8407;-72
2023/06/08 03:49:14;;;;;;;;;;;;;;;14.20;100.00;95478.88;10508237;28;5442;-73
2023/06/08 03:54:16;;;;;;;;;;;;;;;14.31;100.00;95480.22;10504897;28;1876;-73
2023/06/08 03:59:19;;;;;;;;;;;;;;;14.27;100.00;95473.84;10513859;28;1927;-72
2023/06/08 04:04:23;;;;;;;;;;;;;;;14.50;100.00;95470.09;10507634;28;1883;-72
2023/06/08 04:09:26;;;;;;;;;;;;;;;14.75;100.00;95465.19;10511314;28;5486;-72
2023/06/08 04:14:28;;;;;;;;;;;;;;;14.84;100.00;95460.66;10512379;28;2019;-71
2023/06/08 04:19:30;;;;;;;;;;;;;;;14.83;100.00;95467.19;10511130;28;1901;-73
2023/06/08 04:24:33;;;;;;;;;;;;;;;14.93;100.00;95471.53;10512623;28;1860;-72
2023/06/08 04:29:35;;;;;;;;;;;;;;;14.78;100.00;95473.50;10508592;28;1971;-72
2023/06/08 04:34:38;;;;;;;;;;;;;;;15.33;100.00;95469.69;10513044;28;2038;-73
2023/06/08 04:39:40;;;;;;;;;;;;;;;15.59;100.00;95470.63;10505087;28;2233;-71
2023/06/08 04:44:43;;;;;;;;;;;;;;;15.91;100.00;95476.84;10504115;28;6616;-71
2023/06/08 04:49:45;;;;;;;;;;;;;;;16.38;100.00;95474.38;10508541;28;1976;-71
2023/06/08 04:54:50;;;;;;;;;;;;;;;16.84;100.00;95481.13;10510440;28;1946;-72
2023/06/08 04:59:53;;;;;;;;;;;;;;;17.17;100.00;95474.06;10508376;28;1890;-71
2023/06/08 05:04:55;;;;;;;;;;;;;;;17.39;100.00;95474.97;10511611;28;1956;-73
2023/06/08 05:09:59;;;;;;;;;;;;;;;17.65;100.00;95472.97;10504363;28;2025;-71
2023/06/08 05:15:02;;;;;;;;;;;;;;;17.82;100.00;95470.22;10507497;28;1880;-72
2023/06/08 05:20:05;;;;;;;;;;;;;;;18.02;100.00;95476.84;10509341;28;1991;-72
2023/06/08 05:25:08;;;;;;;;;;;;;;;18.45;100.00;95485.84;10510674;28;1960;-72
2023/06/08 05:30:10;;;;;;;;;;;;;;;19.03;100.00;95481.44;10509228;28;1841;-69
2023/06/08 05:35:13;;;;;;;;;;;;;;;19.43;100.00;95478.97;10513275;28;1925;-69
2023/06/08 05:40:15;;;;;;;;;;;;;;;19.23;100.00;95482.53;10506034;28;4666;-69
2023/06/08 05:45:17;;;;;;;;;;;;;;;18.91;100.00;95471.28;10510204;28;1911;-69
2023/06/08 05:50:20;;;;;;;;;;;;;;;18.46;100.00;95479.31;10490674;28;1883;-69
2023/06/08 05:55:22;;;;;;;;;;;;;;;18.02;100.00;95481.47;10512661;28;1848;-69
2023/06/08 06:00:25;;;;;;;;;;;;;;;18.03;100.00;95480.34;10511388;28;1926;-69
2023/06/08 06:05:27;;;;;;;;;;;;;;;18.23;100.00;95476.06;10507519;28;1859;-70
2023/06/08 06:10:29;;;;;;;;;;;;;;;18.62;100.00;95480.28;10492893;28;1945;-70
2023/06/08 06:15:32;;;;;;;;;;;;;;;19.23;100.00;95479.81;10501643;28;2035;-71
2023/06/08 06:20:34;;;;;;;;;;;;;;;19.40;100.00;95475.00;10502679;28;2084;-71
2023/06/08 06:25:37;;;;;;;;;;;;;;;19.64;100.00;95468.00;10508077;28;2131;-71
2023/06/08 06:30:39;;;;;;;;;;;;;;;19.96;100.00;95469.84;10499060;28;1927;-71
2023/06/08 06:35:42;;;;;;;;;;;;;;;20.57;100.00;95460.06;10502324;28;2419;-71
2023/06/08 06:40:45;;;;;;;;;;;;;;;20.95;97.47;95470.53;10515417;28;4689;-71
2023/06/08 06:45:50;;;;;;;;;;;;;;;21.44;92.89;95460.19;10511725;28;1395;-71
2023/06/08 06:50:53;;;;;;;;;;;;;;;21.89;87.81;95469.16;10513943;28;1300;-72
2023/06/08 06:55:55;;;;;;;;;;;;;;;21.14;93.88;95469.88;10514208;28;1479;-72
2023/06/08 07:00:58;;;;;;;;;;;;;;;21.04;93.23;95474.69;10513251;28;1930;-71
2023/06/08 07:06:00;;;;;;;;;;;;;;;21.21;95.26;95475.53;10520103;28;1143;-72
2023/06/08 07:11:03;;;;;;;;;;;;;;;20.75;95.01;95483.22;10518669;28;1436;-72
2023/06/08 07:16:05;;;;;;;;;;;;;;;20.43;99.31;95493.16;10511869;28;1353;-72
2023/06/08 07:21:08;;;;;;;;;;;;;;;20.69;100.00;95476.41;10517181;28;1971;-72
2023/06/08 07:26:11;;;;;;;;;;;;;;;20.95;100.00;95476.78;10505272;28;1317;-73
2023/06/08 07:31:28;;;;;;;;;;;;;;;20.58;100.00;95486.22;10518411;28;2386;-72
2023/06/08 07:36:31;;;;;;;;;;;;;;;21.56;100.00;95473.78;10505229;28;1365;-72
2023/06/08 07:41:34;;;;;;;;;;;;;;;21.46;100.00;95482.50;10513733;28;4778;-73
2023/06/08 07:46:37;;;;;;;;;;;;;;;22.01;98.94;95479.97;10510950;28;1384;-73
2023/06/08 07:51:39;;;;;;;;;;;;;;;21.92;100.00;95473.91;10518750;28;1130;-72
2023/06/08 07:56:42;;;;;;;;;;;;;;;21.69;100.00;95469.03;10514765;28;1563;-73
2023/06/08 08:01:44;;;;;;;;;;;;;;;22.02;100.00;95470.66;10510381;28;1910;-73
2023/06/08 08:06:47;;;;;;;;;;;;;;;22.52;100.00;95458.94;10518160;28;1173;-72
2023/06/08 08:11:49;;;;;;;;;;;;;;;22.35;100.00;95453.84;10516437;28;1579;-71
2023/06/08 08:16:51;;;;;;;;;;;;;;;22.57;100.00;95458.63;10510350;28;1411;-72
2023/06/08 08:21:54;;;;;;;;;;;;;;;22.07;100.00;95464.88;10517744;28;1894;-71
2023/06/08 08:26:56;;;;;;;;;;;;;;;22.52;100.00;95447.97;10509865;28;2317;-72
2023/06/08 08:31:59;;;;;;;;;;;;;;;22.93;100.00;95448.47;10507465;28;1440;-72
2023/06/08 08:37:01;;;;;;;;;;;;;;;22.50;100.00;95455.75;10516210;28;1431;-73
2023/06/08 08:42:04;;;;;;;;;;;;;;;22.69;100.00;95462.41;10518943;28;4762;-72
2023/06/08 08:47:10;;;;;;;;;;;;;;;22.58;100.00;95452.00;10517681;28;1406;-72
2023/06/08 08:52:12;;;;;;;;;;;;;;;22.82;100.00;95458.38;10515688;28;1147;-72
2023/06/08 08:57:15;;;;;;;;;;;;;;;23.06;100.00;95454.59;10516951;28;1508;-72
2023/06/08 09:02:17;;;;;;;;;;;;;;;23.24;100.00;95453.00;10521293;28;1891;-73
2023/06/08 09:07:20;;;;;;;;;;;;;;;23.25;100.00;95449.09;10520190;28;1420;-73
2023/06/08 09:12:22;;;;;;;;;;;;;;;23.20;100.00;95436.47;10522978;28;1463;-72
2023/06/08 09:17:25;;;;;;;;;;;;;;;23.37;99.10;95453.63;10526495;28;1130;-72
2023/06/08 09:22:28;;;;;;;;;;;;;;;23.73;99.48;95433.94;10523169;28;2232;-73
2023/06/08 09:27:31;;;;;;;;;;;;;;;24.36;98.30;95426.31;10519964;28;1130;-73
2023/06/08 09:32:33;;;;;;;;;;;;;;;24.24;100.00;95425.34;10518037;28;1408;-72
2023/06/08 09:37:41;;;;;;;;;;;;;;;24.09;100.00;95423.53;10499766;28;1415;-72
2023/06/08 09:42:44;;;;;;;;;;;;;;;23.64;99.09;95419.66;10518802;28;4837;-74
2023/06/08 09:47:46;;;;;;;;;;;;;;;23.92;100.00;95413.88;10519309;28;1191;-71
2023/06/08 09:52:50;;;;;;;;;;;;;;;24.10;99.49;95407.84;10518081;28;1428;-73
2023/06/08 09:57:53;;;;;;;;;;;;;;;24.19;88.73;95417.41;10522100;28;1984;-73
2023/06/08 10:03:00;;;;;;;;;;;;;;;24.24;82.73;95413.56;10517390;28;1467;-73
2023/06/08 10:08:03;;;;;;;;;;;;;;;24.28;85.01;95408.91;10520736;28;1475;-73
2023/06/08 10:13:05;;;;;;;;;;;;;;;24.19;79.67;95400.94;10516178;28;1382;-73
2023/06/08 10:18:08;;;;;;;;;;;;;;;24.04;80.28;95399.13;10524959;28;2327;-73
2023/06/08 10:23:10;;;;;;;;;;;;;;;24.23;84.50;95410.00;10515572;28;1487;-73
2023/06/08 10:28:20;;;;;;;;;;;;;;;24.17;87.75;95389.50;10513146;28;1158;-74
2023/06/08 10:33:24;;;;;;;;;;;;;;;24.33;88.12;95383.09;10517927;28;1392;-72
2023/06/08 10:38:27;;;;;;;;;;;;;;;25.19;81.47;95373.97;10519092;28;1957;-72
2023/06/08 10:43:29;;;;;;;;;;;;;;;25.87;75.82;95367.94;10505698;28;4769;-73
2023/06/08 10:48:51;;;;;;;;;;;;;;;25.75;72.30;95359.19;10520447;28;1103;-72
2023/06/08 10:53:54;;;;;;;;;;;;;;;26.49;70.24;95352.63;10515643;28;1421;-73
2023/06/08 10:58:56;;;;;;;;;;;;;;;26.15;68.97;95350.03;10520382;28;1902;-72
2023/06/08 11:04:00;;;;;;;;;;;;;;;26.38;65.35;95355.28;10512620;28;1560;-73
2023/06/08 11:09:09;;;;;;;;;;;;;;;25.91;63.77;95356.16;10516738;28;1409;-73
2023/06/08 11:14:11;;;;;;;;;;;;;;;26.52;59.47;95366.41;10517632;28;2377;-73
2023/06/08 11:19:13;;;;;;;;;;;;;;;27.08;55.95;95356.00;10519120;28;1882;-73
2023/06/08 11:24:16;;;;;;;;;;;;;;;25.64;57.08;95361.00;10505265;28;1440;-72
2023/06/08 11:29:18;;;;;;;;;;;;;;;25.12;63.07;95349.13;10519927;28;1111;-72
2023/06/08 11:34:21;;;;;;;;;;;;;;;25.39;61.67;95355.31;10514602;28;1365;-72
2023/06/08 11:39:23;;;;;;;;;;;;;;;25.21;61.72;95355.13;10512384;28;1890;-73
2023/06/08 11:44:26;;;;;;;;;;;;;;;24.41;65.06;95343.56;10511322;28;5109;-73
2023/06/08 11:49:28;;;;;;;;;;;;;;;25.17;68.59;95346.84;10514562;28;1365;-72
2023/06/08 11:54:30;;;;;;;;;;;;;;;25.41;67.08;95336.47;10518984;28;1134;-72
2023/06/08 11:59:33;;;;;;;;;;;;;;;25.70;61.65;95338.25;10511223;28;1902;-73
2023/06/08 12:04:35;;;;;;;;;;;;;;;25.12;65.47;95347.19;10516435;28;1372;-73
2023/06/08 12:09:38;;;;;;;;;;;;;;;25.75;62.23;95329.69;10515756;28;1630;-74
2023/06/08 12:14:40;;;;;;;;;;;;;;;24.94;63.87;95333.25;10510017;28;2719;-73
2023/06/08 12:19:42;;;;;;;;;;;;;;;25.03;63.36;95330.16;10518385;28;1914;-71
2023/06/08 12:24:45;;;;;;;;;;;;;;;25.55;59.17;95317.31;10517844;28;1499;-72
2023/06/08 12:29:47;;;;;;;;;;;;;;;24.96;61.36;95322.63;10527125;28;1232;-73
2023/06/08 12:34:50;;;;;;;;;;;;;;;25.63;60.58;95307.94;10526968;28;1335;-72
2023/06/08 12:39:53;;;;;;;;;;;;;;;25.71;61.64;95309.59;10525751;28;1895;-73
2023/06/08 12:44:55;;;;;;;;;;;;;;;25.57;61.93;95309.47;10524376;28;1456;-73
2023/06/08 12:50:00;;;;;;;;;;;;;;;24.97;64.90;95301.44;10524835;28;1226;-73
2023/06/08 12:55:03;;;;;;;;;;;;;;;25.37;63.84;95303.41;10526657;28;1384;-72
2023/06/08 13:00:06;;;;;;;;;;;;;;;24.68;68.50;95292.88;10519431;28;1959;-73
2023/06/08 13:05:09;;;;;;;;;;;;;;;24.56;70.97;95286.84;10522566;28;1432;-74
2023/06/08 13:10:11;;;;;;;;;;;;;;;24.79;70.06;95276.50;10523081;28;2409;-73
2023/06/08 13:15:14;;;;;;;;;;;;;;;24.17;71.47;95287.91;10516058;28;1487;-74
2023/06/08 13:20:17;;;;;;;;;;;;;;;23.95;80.31;95291.56;10524045;28;1922;-73
2023/06/08 13:25:19;;;;;;;;;;;;;;;22.18;100.00;95309.94;10516429;28;1444;-70
2023/06/08 13:30:22;;;;;;;;;;;;;;;20.26;100.00;95322.25;10516493;28;1256;-71
2023/06/08 13:35:24;;;;;;;;;;;;;;;19.32;100.00;95342.31;10522042;28;1785;-71
2023/06/08 13:40:31;;;;;;;;;;;;;;;18.49;100.00;95353.44;10522332;28;4702;-72
2023/06/08 13:45:35;;;;;;;;;;;;;;;17.72;100.00;95344.72;10512053;28;1674;-71
2023/06/08 13:50:37;;;;;;;;;;;;;;;17.53;100.00;95337.78;10522601;28;1154;-71
2023/06/08 13:55:39;;;;;;;;;;;;;;;17.61;100.00;95346.19;10517240;28;1470;-71
2023/06/08 14:00:42;;;;;;;;;;;;;;;17.77;100.00;95326.31;10516739;28;1930;-71
2023/06/08 14:05:44;;;;;;;;;;;;;;;18.19;100.00;95323.59;10518878;28;2302;-70
2023/06/08 14:10:46;;;;;;;;;;;;;;;19.34;100.00;95306.53;10516939;28;1459;-71
2023/06/08 14:15:49;;;;;;;;;;;;;;;21.44;100.00;95281.66;10516134;28;1437;-72
2023/06/08 14:20:51;;;;;;;;;;;;;;;23.55;100.00;95272.91;10521281;28;1981;-72
2023/06/08 14:25:54;;;;;;;;;;;;;;;24.58;100.00;95263.34;10521618;28;1155;-73
2023/06/08 14:30:56;;;;;;;;;;;;;;;25.15;100.00;95247.44;10518854;28;1364;-72
2023/06/08 14:35:59;;;;;;;;;;;;;;;25.44;100.00;95242.94;10520685;28;1201;-72
2023/06/08 14:41:02;;;;;;;;;;;;;;;25.55;96.00;95240.25;10519057;28;4844;-72
2023/06/08 14:46:04;;;;;;;;;;;;;;;25.55;97.77;95232.00;10512714;28;1492;-71
2023/06/08 14:51:09;;;;;;;;;;;;;;;25.71;63.57;95235.28;10520863;28;1204;-71
2023/06/08 14:56:29;;;;;;;;;;;;;;;25.27;61.41;95233.38;10513192;28;1519;-73
2023/06/08 15:01:32;;;;;;;;;;;;;;;25.01;53.96;95231.56;10514733;28;1975;-72
2023/06/08 15:06:38;;;;;;;;;;;;;;;24.59;52.22;95231.94;10518350;28;1344;-72
2023/06/08 15:11:41;;;;;;;;;;;;;;;24.53;60.56;95227.94;10519216;28;1213;-73
2023/06/08 15:16:43;;;;;;;;;;;;;;;25.08;67.08;95214.38;10507880;28;1574;-73
2023/06/08 15:21:46;;;;;;;;;;;;;;;24.93;69.53;95213.41;10519945;28;1906;-72
2023/06/08 15:26:48;;;;;;;;;;;;;;;25.39;62.61;95204.00;10519280;28;1419;-73
2023/06/08 15:31:51;;;;;;;;;;;;;;;25.32;69.86;95202.78;10518344;28;1229;-73
2023/06/08 15:36:53;;;;;;;;;;;;;;;25.49;80.21;95192.25;10509585;28;1392;-72
2023/06/08 15:41:55;;;;;;;;;;;;;;;25.38;67.24;95188.63;10519140;28;4710;-72
2023/06/08 15:46:58;;;;;;;;;;;;;;;25.12;74.36;95187.66;10522938;28;1748;-73
2023/06/08 15:52:00;;;;;;;;;;;;;;;25.04;76.50;95181.34;10527576;28;1294;-72
2023/06/08 15:57:03;;;;;;;;;;;;;;;25.34;72.44;95178.41;10529728;28;1471;-72
2023/06/08 16:02:05;;;;;;;;;;;;;;;25.22;60.38;95177.94;10529331;28;1910;-73
2023/06/08 16:07:08;;;;;;;;;;;;;;;25.18;59.79;95158.66;10511523;28;1842;-73
2023/06/08 16:12:11;;;;;;;;;;;;;;;25.17;57.33;95154.31;10531572;28;1256;-72
2023/06/08 16:17:13;;;;;;;;;;;;;;;24.94;55.24;95148.22;10529009;28;1723;-73
2023/06/08 16:22:16;;;;;;;;;;;;;;;24.80;54.94;95143.41;10531482;28;1894;-71
2023/06/08 16:27:19;;;;;;;;;;;;;;;24.76;62.10;95134.34;10528045;28;1359;-72
2023/06/08 16:32:22;;;;;;;;;;;;;;;24.54;62.35;95133.34;10531564;28;1272;-73
2023/06/08 16:37:24;;;;;;;;;;;;;;;24.50;61.31;95118.81;10530368;28;1409;-73
2023/06/08 16:42:27;;;;;;;;;;;;;;;24.13;58.18;95116.84;10526334;28;4829;-73
2023/06/08 16:47:31;;;;;;;;;;;;;;;23.84;58.11;95115.75;10531824;28;1220;-73
2023/06/08 16:52:34;;;;;;;;;;;;;;;23.54;56.46;95123.97;10524139;28;2299;-73
2023/06/08 16:57:37;;;;;;;;;;;;;;;23.41;59.29;95130.84;10528596;28;1375;-74
2023/06/08 17:02:40;;;;;;;;;;;;;;;23.36;62.07;95136.66;10527308;28;1886;-73
2023/06/08 17:07:42;;;;;;;;;;;;;;;23.28;64.96;95133.00;10517258;28;1433;-74
2023/06/08 17:12:45;;;;;;;;;;;;;;;23.28;63.23;95143.97;10522984;28;1488;-73
2023/06/08 17:17:47;;;;;;;;;;;;;;;23.29;64.27;95144.81;10522625;28;1412;-74
2023/06/08 17:22:50;;;;;;;;;;;;;;;23.27;67.45;95145.16;10523832;28;1910;-72
2023/06/08 17:27:52;;;;;;;;;;;;;;;22.88;75.16;95153.56;10522625;28;1538;-73
2023/06/08 17:32:55;;;;;;;;;;;;;;;22.86;78.68;95149.59;10523190;28;1118;-73
2023/06/08 17:37:57;;;;;;;;;;;;;;;22.80;84.07;95172.97;10522803;28;1772;-73
2023/06/08 17:43:00;;;;;;;;;;;;;;;22.67;86.39;95167.69;10521547;28;1977;-73
2023/06/08 17:48:02;;;;;;;;;;;;;;;22.56;87.60;95163.97;10504930;28;1374;-72
2023/06/08 17:53:05;;;;;;;;;;;;;;;22.54;88.15;95158.06;10514080;28;1436;-73
2023/06/08 17:58:07;;;;;;;;;;;;;;;;;;10520525;28;1198;-73
2023/06/08 18:03:10;;;;;;;;;;;;;;;21.62;100.00;95187.13;10515050;28;1884;-73
2023/06/08 18:08:13;;;;;;;;;;;;;;;21.52;100.00;95199.44;10521742;28;1249;-72
2023/06/08 18:13:15;;;;;;;;;;;;;;;21.09;100.00;95210.53;10522153;28;1415;-71
2023/06/08 18:18:18;;;;;;;;;;;;;;;20.79;100.00;95210.97;10520671;28;1428;-72
2023/06/08 18:23:23;;;;;;;;;;;;;;;20.35;100.00;95251.13;10521776;28;1961;-72
2023/06/08 18:28:26;;;;;;;;;;;;;;;19.68;100.00;95288.97;10512371;28;1466;-74
2023/06/08 18:33:28;;;;;;;;;;;;;;;19.65;100.00;95289.63;10521690;28;1209;-73
2023/06/08 18:38:30;;;;;;;;;;;;;;;19.07;100.00;95302.56;10520018;28;1484;-73
2023/06/08 18:43:33;;;;;;;;;;;;;;;18.80;100.00;95332.03;10513772;28;1985;-73
2023/06/08 18:48:35;;;;;;;;;;;;;;;18.84;100.00;95353.94;10520392;28;2270;-72
2023/06/08 18:53:38;;;;;;;;;;;;;;;18.42;100.00;95355.91;10520412;28;1487;-74
2023/06/08 18:58:40;;;;;;;;;;;;;;;18.07;100.00;95342.59;10511046;28;1170;-73
2023/06/08 19:03:42;;;;;;;;;;;;;;;18.11;100.00;95351.66;10515589;28;1975;-72
2023/06/08 19:08:45;;;;;;;;;;;;;;;17.86;100.00;95374.38;10516348;28;1364;-73
2023/06/08 19:13:48;;;;;;;;;;;;;;;17.54;100.00;95387.47;10514905;28;1526;-73
2023/06/08 19:18:50;;;;;;;;;;;;;;;17.26;100.00;95412.38;10520001;28;1202;-73
2023/06/08 19:23:53;;;;;;;;;;;;;;;17.13;100.00;95410.66;10518583;28;1910;-72
2023/06/08 19:28:56;;;;;;;;;;;;;;;16.89;100.00;95415.81;10516523;28;1473;-72
2023/06/08 19:33:59;;;;;;;;;;;;;;;16.66;100.00;95421.38;10515237;28;1217;-72
2023/06/08 19:39:01;;;;;;;;;;;;;;;16.57;100.00;95411.66;10513909;28;1479;-72
2023/06/08 19:44:04;;;;;;;;;;;;;;;16.59;100.00;95398.56;10517121;28;4817;-72
2023/06/08 19:49:06;;;;;;;;;;;;;;;16.42;100.00;95389.34;10519134;28;1212;-72
2023/06/08 19:54:09;;;;;;;;;;;;;;;16.11;100.00;95399.53;10512819;28;1419;-73
2023/06/08 19:59:11;;;;;;;;;;;;;;;15.57;100.00;95407.03;10517710;28;1444;-72
2023/06/08 20:04:13;;;;;;;;;;;;;;;15.37;100.00;95419.22;10524887;28;1914;-72
2023/06/08 20:09:19;;;;;;;;;;;;;;;15.31;100.00;95415.06;10513073;28;1420;-72
2023/06/08 20:14:21;;;;;;;;;;;;;;;15.33;100.00;95410.94;10514835;28;1400;-72
2023/06/08 20:19:24;;;;;;;;;;;;;;;15.39;100.00;95396.13;10518841;28;1221;-73
2023/06/08 20:24:27;;;;;;;;;;;;;;;15.35;100.00;95395.16;10517792;28;1918;-72
2023/06/08 20:29:30;;;;;;;;;;;;;;;15.46;100.00;95384.88;10513456;28;1393;-72
2023/06/08 20:34:32;;;;;;;;;;;;;;;15.67;100.00;95382.41;10518483;28;1163;-72
2023/06/08 20:39:35;;;;;;;;;;;;;;;15.81;100.00;95380.34;10512612;28;2298;-72
2023/06/08 20:44:37;;;;;;;;;;;;;;;15.78;100.00;95383.72;10523385;28;5053;-71
2023/06/08 20:49:39;;;;;;;;;;;;;;;15.73;100.00;95393.91;10532456;28;1137;-71
2023/06/08 20:54:42;;;;;;;;;;;;;;;15.66;100.00;95400.56;10521564;28;1337;-73
2023/06/08 20:59:44;;;;;;;;;;;;;;;15.57;100.00;95399.69;10525860;28;1186;-73
2023/06/08 21:04:47;;;;;;;;;;;;;;;15.49;100.00;95396.97;10517671;28;1898;-73
2023/06/08 21:09:49;;;;;;;;;;;;;;;15.31;100.00;95396.91;10524378;28;1202;-72
2023/06/08 21:14:52;;;;;;;;;;;;;;;15.15;100.00;95411.97;10513896;28;1400;-72
2023/06/08 21:19:54;;;;;;;;;;;;;;;15.04;100.00;95408.72;10516053;28;1349;-70
2023/06/08 21:24:57;;;;;;;;;;;;;;;15.03;100.00;95401.72;10523530;28;1890;-72
2023/06/08 21:29:59;;;;;;;;;;;;;;;15.06;100.00;95387.53;10521193;28;1816;-71
2023/06/08 21:35:02;;;;;;;;;;;;;;;15.16;100.00;95402.72;10521360;28;2318;-72
2023/06/08 21:40:04;;;;;;;;;;;;;;;15.11;100.00;95403.66;10523624;28;4723;-72
2023/06/08 21:45:06;;;;;;;;;;;;;;;15.23;100.00;95386.03;10520900;28;1910;-71
2023/06/08 21:50:12;;;;;;;;;;;;;;;15.04;100.00;95400.59;10523392;28;1028;-73
2023/06/08 21:55:15;;;;;;;;;;;;;;;14.92;100.00;95396.88;10523175;28;1379;-71
2023/06/08 22:00:17;;;;;;;;;;;;;;;14.91;100.00;95401.50;10517868;28;1409;-71
2023/06/08 22:05:19;;;;;;;;;;;;;;;14.86;100.00;95399.69;10518171;28;1965;-72
2023/06/08 22:10:22;;;;;;;;;;;;;;;14.91;100.00;95392.56;10521364;28;1170;-71
2023/06/08 22:15:24;;;;;;;;;;;;;;;14.79;100.00;95393.13;10520200;28;1409;-72
2023/06/08 22:20:32;;;;;;;;;;;;;;;14.74;100.00;95401.38;10512624;28;1423;-72
2023/06/08 22:25:35;;;;;;;;;;;;;;;14.70;100.00;95406.63;10522247;28;1966;-72
2023/06/08 22:30:38;;;;;;;;;;;;;;;14.72;100.00;95417.13;10511931;28;2317;-73
2023/06/08 22:35:40;;;;;;;;;;;;;;;14.69;100.00;95412.31;10512161;28;1139;-72
2023/06/08 22:40:43;;;;;;;;;;;;;;;14.63;100.00;95408.13;10521484;28;4784;-72
2023/06/08 22:45:46;;;;;;;;;;;;;;;14.78;100.00;95402.38;10520925;28;1967;-72
2023/06/08 22:50:49;;;;;;;;;;;;;;;14.92;100.00;95413.91;10521731;28;1197;-72
2023/06/08 22:55:51;;;;;;;;;;;;;;;15.11;100.00;95424.53;10516903;28;1420;-73
2023/06/08 23:00:55;;;;;;;;;;;;;;;15.21;100.00;95409.94;10519764;28;1133;-71
2023/06/08 23:05:58;;;;;;;;;;;;;;;15.23;100.00;95410.41;10513061;28;1914;-71
2023/06/08 23:11:01;;;;;;;;;;;;;;;15.25;100.00;95400.06;10518479;28;1405;-71
2023/06/08 23:16:08;;;;;;;;;;;;;;;15.27;100.00;95414.91;10518071;28;1389;-72
2023/06/08 23:21:12;;;;;;;;;;;;;;;15.26;100.00;95410.56;10510653;28;1389;-73
2023/06/08 23:26:16;;;;;;;;;;;;;;;15.34;100.00;95409.03;10518839;28;2406;-72
2023/06/08 23:31:19;;;;;;;;;;;;;;;15.18;100.00;95405.13;10511683;28;1318;-72
2023/06/08 23:36:22;;;;;;;;;;;;;;;15.14;100.00;95403.06;10519068;28;1103;-73
2023/06/08 23:41:24;;;;;;;;;;;;;;;15.09;100.00;95407.81;10518165;28;4809;-72
2023/06/08 23:46:27;;;;;;;;;;;;;;;14.95;100.00;95401.66;10517464;28;1530;-71
2023/06/08 23:51:29;;;;;;;;;;;;;;;14.98;100.00;95391.00;10502496;28;1387;-71
2023/06/08 23:56:32;;;;;;;;;;;;;;;15.00;100.00;95364.44;10519063;28;1229;-72
